Terminal Aerodrome Forecast
Issued by NWS Twin Cities, MN

Home | Current Version | Previous Version | Graphics & Text | Print | Product List | Glossary On
Versions: 1 2 3 4 5 6 7 8 9 10 11 12 13 14 15 16 17 18 19 20 21 22 23 24 25 26 27 28
365
FTUS43 KMPX 262027 AAA
TAFMSP
TAF AMD
KMSP 262027Z 2620/2724 23012G20KT P6SM SCT250
     FM270200 20005KT P6SM SCT120 BKN250
     FM271000 17003KT P6SM BKN100
     FM271700 10006KT P6SM VCSH SCT040 BKN100=

USA.gov is the U.S. government's official web portal to all federal, state and local government web resources and services.